sensor_id;sensor_type;location;lat;lon;timestamp;P1;durP1;ratioP1;P2;durP2;ratioP2
7843;SDS011;3967;48.702;9.326;2023-07-24T00:00:59;7.77;;;5.80;;
7843;SDS011;3967;48.702;9.326;2023-07-24T00:03:26;7.93;;;5.97;;
7843;SDS011;3967;48.702;9.326;2023-07-24T00:05:53;9.53;;;6.37;;
7843;SDS011;3967;48.702;9.326;2023-07-24T00:08:24;7.43;;;5.33;;
7843;SDS011;3967;48.702;9.326;2023-07-24T00:10:51;7.43;;;5.47;;
7843;SDS011;3967;48.702;9.326;2023-07-24T00:13:19;7.20;;;5.90;;
7843;SDS011;3967;48.702;9.326;2023-07-24T00:15:46;7.37;;;5.83;;
7843;SDS011;3967;48.702;9.326;2023-07-24T00:18:13;6.93;;;5.50;;
7843;SDS011;3967;48.702;9.326;2023-07-24T00:20:39;6.60;;;4.90;;
7843;SDS011;3967;48.702;9.326;2023-07-24T00:23:06;7.57;;;5.50;;
7843;SDS011;3967;48.702;9.326;2023-07-24T00:25:33;6.97;;;5.80;;
7843;SDS011;3967;48.702;9.326;2023-07-24T00:28:00;6.67;;;5.30;;
7843;SDS011;3967;48.702;9.326;2023-07-24T00:30:26;7.50;;;6.10;;
7843;SDS011;3967;48.702;9.326;2023-07-24T00:32:53;7.10;;;5.50;;
7843;SDS011;3967;48.702;9.326;2023-07-24T00:35:20;7.60;;;5.93;;
7843;SDS011;3967;48.702;9.326;2023-07-24T00:37:47;6.73;;;6.03;;
7843;SDS011;3967;48.702;9.326;2023-07-24T00:40:13;6.87;;;5.83;;
7843;SDS011;3967;48.702;9.326;2023-07-24T00:42:47;8.43;;;6.40;;
7843;SDS011;3967;48.702;9.326;2023-07-24T00:45:14;7.83;;;5.27;;
7843;SDS011;3967;48.702;9.326;2023-07-24T00:47:42;7.93;;;5.40;;
7843;SDS011;3967;48.702;9.326;2023-07-24T00:50:09;7.80;;;6.10;;
7843;SDS011;3967;48.702;9.326;2023-07-24T00:52:38;8.87;;;5.60;;
7843;SDS011;3967;48.702;9.326;2023-07-24T00:55:06;7.60;;;5.80;;
7843;SDS011;3967;48.702;9.326;2023-07-24T00:57:33;9.37;;;6.10;;
7843;SDS011;3967;48.702;9.326;2023-07-24T01:00:00;9.03;;;6.80;;
7843;SDS011;3967;48.702;9.326;2023-07-24T01:02:29;7.57;;;5.87;;
7843;SDS011;3967;48.702;9.326;2023-07-24T01:04:56;7.30;;;6.20;;
7843;SDS011;3967;48.702;9.326;2023-07-24T01:07:23;8.60;;;6.23;;
7843;SDS011;3967;48.702;9.326;2023-07-24T01:09:50;8.10;;;6.73;;
7843;SDS011;3967;48.702;9.326;2023-07-24T01:15:13;9.60;;;6.53;;
7843;SDS011;3967;48.702;9.326;2023-07-24T01:17:50;10.07;;;6.27;;
7843;SDS011;3967;48.702;9.326;2023-07-24T01:20:26;9.30;;;6.47;;
7843;SDS011;3967;48.702;9.326;2023-07-24T01:22:57;8.70;;;6.60;;
7843;SDS011;3967;48.702;9.326;2023-07-24T01:25:33;8.13;;;6.50;;
7843;SDS011;3967;48.702;9.326;2023-07-24T01:28:06;8.40;;;6.90;;
7843;SDS011;3967;48.702;9.326;2023-07-24T01:30:33;9.97;;;6.53;;
7843;SDS011;3967;48.702;9.326;2023-07-24T01:33:01;8.07;;;6.33;;
7843;SDS011;3967;48.702;9.326;2023-07-24T01:35:28;7.83;;;6.20;;
7843;SDS011;3967;48.702;9.326;2023-07-24T01:37:56;8.77;;;6.30;;
7843;SDS011;3967;48.702;9.326;2023-07-24T01:40:25;7.77;;;6.10;;
7843;SDS011;3967;48.702;9.326;2023-07-24T01:42:51;11.20;;;6.93;;
7843;SDS011;3967;48.702;9.326;2023-07-24T01:45:18;8.70;;;6.20;;
7843;SDS011;3967;48.702;9.326;2023-07-24T01:47:45;7.77;;;6.03;;
7843;SDS011;3967;48.702;9.326;2023-07-24T01:50:12;8.93;;;6.43;;
7843;SDS011;3967;48.702;9.326;2023-07-24T01:52:39;8.80;;;6.43;;
7843;SDS011;3967;48.702;9.326;2023-07-24T01:55:05;9.40;;;6.17;;
7843;SDS011;3967;48.702;9.326;2023-07-24T01:57:33;7.20;;;5.80;;
7843;SDS011;3967;48.702;9.326;2023-07-24T01:59:59;10.00;;;7.07;;
7843;SDS011;3967;48.702;9.326;2023-07-24T02:02:26;8.03;;;6.30;;
7843;SDS011;3967;48.702;9.326;2023-07-24T02:04:53;8.47;;;6.60;;
7843;SDS011;3967;48.702;9.326;2023-07-24T02:07:19;9.03;;;5.97;;
7843;SDS011;3967;48.702;9.326;2023-07-24T02:09:46;12.87;;;6.70;;
7843;SDS011;3967;48.702;9.326;2023-07-24T02:12:13;9.10;;;6.73;;
7843;SDS011;3967;48.702;9.326;2023-07-24T02:14:40;9.40;;;6.17;;
7843;SDS011;3967;48.702;9.326;2023-07-24T02:17:06;7.57;;;6.23;;
7843;SDS011;3967;48.702;9.326;2023-07-24T02:19:33;7.60;;;6.00;;
7843;SDS011;3967;48.702;9.326;2023-07-24T02:22:00;14.03;;;6.03;;
7843;SDS011;3967;48.702;9.326;2023-07-24T02:24:26;10.43;;;6.47;;
7843;SDS011;3967;48.702;9.326;2023-07-24T02:26:53;8.57;;;6.73;;
7843;SDS011;3967;48.702;9.326;2023-07-24T02:29:20;7.80;;;5.90;;
7843;SDS011;3967;48.702;9.326;2023-07-24T02:31:49;7.73;;;6.00;;
7843;SDS011;3967;48.702;9.326;2023-07-24T02:34:16;6.97;;;5.63;;
7843;SDS011;3967;48.702;9.326;2023-07-24T02:36:43;7.60;;;6.40;;
7843;SDS011;3967;48.702;9.326;2023-07-24T02:39:10;7.43;;;6.13;;
7843;SDS011;3967;48.702;9.326;2023-07-24T02:41:36;7.13;;;5.83;;
7843;SDS011;3967;48.702;9.326;2023-07-24T02:44:03;7.17;;;5.57;;
7843;SDS011;3967;48.702;9.326;2023-07-24T02:46:30;8.50;;;6.97;;
7843;SDS011;3967;48.702;9.326;2023-07-24T02:48:57;8.50;;;6.23;;
7843;SDS011;3967;48.702;9.326;2023-07-24T02:51:24;6.03;;;5.43;;
7843;SDS011;3967;48.702;9.326;2023-07-24T02:53:52;9.50;;;7.03;;
7843;SDS011;3967;48.702;9.326;2023-07-24T02:56:20;7.87;;;6.10;;
7843;SDS011;3967;48.702;9.326;2023-07-24T02:58:47;7.33;;;5.90;;
7843;SDS011;3967;48.702;9.326;2023-07-24T03:01:13;7.60;;;6.20;;
7843;SDS011;3967;48.702;9.326;2023-07-24T03:03:41;8.60;;;6.37;;
7843;SDS011;3967;48.702;9.326;2023-07-24T03:06:08;8.20;;;5.70;;
7843;SDS011;3967;48.702;9.326;2023-07-24T03:08:34;7.77;;;6.00;;
7843;SDS011;3967;48.702;9.326;2023-07-24T03:11:04;7.97;;;5.70;;
7843;SDS011;3967;48.702;9.326;2023-07-24T03:13:31;7.33;;;5.57;;
7843;SDS011;3967;48.702;9.326;2023-07-24T03:15:58;6.90;;;6.03;;
7843;SDS011;3967;48.702;9.326;2023-07-24T03:18:25;6.80;;;5.70;;
7843;SDS011;3967;48.702;9.326;2023-07-24T03:20:52;6.53;;;5.40;;
7843;SDS011;3967;48.702;9.326;2023-07-24T03:23:19;7.13;;;5.90;;
7843;SDS011;3967;48.702;9.326;2023-07-24T03:25:46;8.70;;;6.33;;
7843;SDS011;3967;48.702;9.326;2023-07-24T03:28:13;9.50;;;6.80;;
7843;SDS011;3967;48.702;9.326;2023-07-24T03:30:40;8.40;;;6.40;;
7843;SDS011;3967;48.702;9.326;2023-07-24T03:33:07;7.03;;;6.10;;
7843;SDS011;3967;48.702;9.326;2023-07-24T03:35:34;6.50;;;5.57;;
7843;SDS011;3967;48.702;9.326;2023-07-24T03:38:00;7.47;;;6.30;;
7843;SDS011;3967;48.702;9.326;2023-07-24T03:40:27;8.40;;;6.33;;
7843;SDS011;3967;48.702;9.326;2023-07-24T03:42:54;6.63;;;5.43;;
7843;SDS011;3967;48.702;9.326;2023-07-24T03:45:21;7.30;;;6.47;;
7843;SDS011;3967;48.702;9.326;2023-07-24T03:47:48;9.57;;;6.93;;
7843;SDS011;3967;48.702;9.326;2023-07-24T03:50:16;9.90;;;7.23;;
7843;SDS011;3967;48.702;9.326;2023-07-24T03:52:43;7.30;;;6.00;;
7843;SDS011;3967;48.702;9.326;2023-07-24T03:55:10;8.13;;;6.37;;
7843;SDS011;3967;48.702;9.326;2023-07-24T03:57:36;8.17;;;6.67;;
7843;SDS011;3967;48.702;9.326;2023-07-24T04:00:03;7.77;;;6.33;;
7843;SDS011;3967;48.702;9.326;2023-07-24T04:02:30;7.63;;;6.23;;
7843;SDS011;3967;48.702;9.326;2023-07-24T04:04:57;12.37;;;6.80;;
7843;SDS011;3967;48.702;9.326;2023-07-24T04:07:24;8.17;;;5.67;;
7843;SDS011;3967;48.702;9.326;2023-07-24T04:09:51;7.93;;;6.70;;
7843;SDS011;3967;48.702;9.326;2023-07-24T04:12:17;7.60;;;6.17;;
7843;SDS011;3967;48.702;9.326;2023-07-24T04:14:44;8.10;;;6.13;;
7843;SDS011;3967;48.702;9.326;2023-07-24T04:17:11;7.90;;;6.13;;
7843;SDS011;3967;48.702;9.326;2023-07-24T04:19:37;7.97;;;6.27;;
7843;SDS011;3967;48.702;9.326;2023-07-24T04:22:04;8.50;;;6.57;;
7843;SDS011;3967;48.702;9.326;2023-07-24T04:24:31;9.47;;;6.40;;
7843;SDS011;3967;48.702;9.326;2023-07-24T04:26:58;8.23;;;6.03;;
7843;SDS011;3967;48.702;9.326;2023-07-24T04:29:24;7.67;;;6.37;;
7843;SDS011;3967;48.702;9.326;2023-07-24T04:31:52;9.30;;;7.00;;
7843;SDS011;3967;48.702;9.326;2023-07-24T04:34:19;9.90;;;6.80;;
7843;SDS011;3967;48.702;9.326;2023-07-24T04:36:45;8.57;;;6.83;;
7843;SDS011;3967;48.702;9.326;2023-07-24T04:39:12;9.23;;;6.63;;
7843;SDS011;3967;48.702;9.326;2023-07-24T04:41:39;7.63;;;6.23;;
7843;SDS011;3967;48.702;9.326;2023-07-24T04:44:06;8.57;;;6.53;;
7843;SDS011;3967;48.702;9.326;2023-07-24T04:46:32;8.97;;;6.27;;
7843;SDS011;3967;48.702;9.326;2023-07-24T04:49:00;6.67;;;6.03;;
7843;SDS011;3967;48.702;9.326;2023-07-24T04:51:26;10.10;;;6.20;;
7843;SDS011;3967;48.702;9.326;2023-07-24T04:53:53;9.90;;;6.60;;
7843;SDS011;3967;48.702;9.326;2023-07-24T04:56:20;11.17;;;6.47;;
7843;SDS011;3967;48.702;9.326;2023-07-24T04:58:47;8.00;;;6.20;;
7843;SDS011;3967;48.702;9.326;2023-07-24T05:01:14;8.67;;;6.67;;
7843;SDS011;3967;48.702;9.326;2023-07-24T05:03:40;8.50;;;6.63;;
7843;SDS011;3967;48.702;9.326;2023-07-24T05:06:07;7.87;;;6.30;;
7843;SDS011;3967;48.702;9.326;2023-07-24T05:08:34;8.53;;;6.37;;
7843;SDS011;3967;48.702;9.326;2023-07-24T05:11:01;8.40;;;6.33;;
7843;SDS011;3967;48.702;9.326;2023-07-24T05:13:28;7.33;;;6.50;;
7843;SDS011;3967;48.702;9.326;2023-07-24T05:15:54;8.40;;;6.47;;
7843;SDS011;3967;48.702;9.326;2023-07-24T05:18:21;9.37;;;6.57;;
7843;SDS011;3967;48.702;9.326;2023-07-24T05:20:48;8.87;;;6.50;;
7843;SDS011;3967;48.702;9.326;2023-07-24T05:23:17;7.03;;;5.83;;
7843;SDS011;3967;48.702;9.326;2023-07-24T05:25:44;10.13;;;6.63;;
7843;SDS011;3967;48.702;9.326;2023-07-24T05:28:11;7.37;;;6.27;;
7843;SDS011;3967;48.702;9.326;2023-07-24T05:30:38;9.77;;;6.37;;
7843;SDS011;3967;48.702;9.326;2023-07-24T05:33:04;8.80;;;6.60;;
7843;SDS011;3967;48.702;9.326;2023-07-24T05:35:31;9.13;;;7.10;;
7843;SDS011;3967;48.702;9.326;2023-07-24T05:37:58;8.17;;;6.40;;
7843;SDS011;3967;48.702;9.326;2023-07-24T05:40:25;7.33;;;6.40;;
7843;SDS011;3967;48.702;9.326;2023-07-24T05:42:52;9.40;;;6.07;;
7843;SDS011;3967;48.702;9.326;2023-07-24T05:45:18;9.47;;;6.57;;
7843;SDS011;3967;48.702;9.326;2023-07-24T05:47:45;9.00;;;6.43;;
7843;SDS011;3967;48.702;9.326;2023-07-24T05:50:12;10.47;;;7.03;;
7843;SDS011;3967;48.702;9.326;2023-07-24T05:52:41;9.00;;;6.60;;
7843;SDS011;3967;48.702;9.326;2023-07-24T05:55:08;9.70;;;6.87;;
7843;SDS011;3967;48.702;9.326;2023-07-24T05:57:35;8.87;;;6.63;;
7843;SDS011;3967;48.702;9.326;2023-07-24T06:00:05;7.87;;;6.20;;
7843;SDS011;3967;48.702;9.326;2023-07-24T06:02:33;8.67;;;6.57;;
7843;SDS011;3967;48.702;9.326;2023-07-24T06:05:00;9.30;;;6.63;;
7843;SDS011;3967;48.702;9.326;2023-07-24T06:07:27;8.87;;;6.37;;
7843;SDS011;3967;48.702;9.326;2023-07-24T06:09:54;8.60;;;6.33;;
7843;SDS011;3967;48.702;9.326;2023-07-24T06:12:20;9.37;;;6.03;;
7843;SDS011;3967;48.702;9.326;2023-07-24T06:14:47;8.97;;;6.30;;
7843;SDS011;3967;48.702;9.326;2023-07-24T06:17:14;8.20;;;7.20;;
7843;SDS011;3967;48.702;9.326;2023-07-24T06:19:40;9.50;;;6.70;;
7843;SDS011;3967;48.702;9.326;2023-07-24T06:22:07;7.97;;;6.37;;
7843;SDS011;3967;48.702;9.326;2023-07-24T06:24:34;8.30;;;6.93;;
7843;SDS011;3967;48.702;9.326;2023-07-24T06:27:00;7.60;;;6.23;;
7843;SDS011;3967;48.702;9.326;2023-07-24T06:29:27;9.37;;;6.13;;
7843;SDS011;3967;48.702;9.326;2023-07-24T06:31:54;6.90;;;6.03;;
7843;SDS011;3967;48.702;9.326;2023-07-24T06:34:21;8.93;;;6.70;;
7843;SDS011;3967;48.702;9.326;2023-07-24T06:36:48;10.50;;;6.73;;
7843;SDS011;3967;48.702;9.326;2023-07-24T06:39:14;8.23;;;6.07;;
7843;SDS011;3967;48.702;9.326;2023-07-24T06:41:41;7.53;;;6.00;;
7843;SDS011;3967;48.702;9.326;2023-07-24T06:44:08;8.13;;;6.60;;
7843;SDS011;3967;48.702;9.326;2023-07-24T06:46:35;7.60;;;5.73;;
7843;SDS011;3967;48.702;9.326;2023-07-24T06:49:01;6.37;;;5.67;;
7843;SDS011;3967;48.702;9.326;2023-07-24T06:51:28;11.23;;;6.97;;
7843;SDS011;3967;48.702;9.326;2023-07-24T06:53:55;8.77;;;6.90;;
7843;SDS011;3967;48.702;9.326;2023-07-24T06:56:21;8.40;;;6.70;;
7843;SDS011;3967;48.702;9.326;2023-07-24T06:58:48;8.50;;;6.53;;
7843;SDS011;3967;48.702;9.326;2023-07-24T07:01:15;7.47;;;6.00;;
7843;SDS011;3967;48.702;9.326;2023-07-24T07:03:42;8.20;;;6.40;;
7843;SDS011;3967;48.702;9.326;2023-07-24T07:06:08;8.17;;;6.93;;
7843;SDS011;3967;48.702;9.326;2023-07-24T07:08:53;10.23;;;6.67;;
7843;SDS011;3967;48.702;9.326;2023-07-24T07:11:20;9.17;;;6.40;;
7843;SDS011;3967;48.702;9.326;2023-07-24T07:13:47;9.00;;;7.10;;
7843;SDS011;3967;48.702;9.326;2023-07-24T07:16:13;8.87;;;6.07;;
7843;SDS011;3967;48.702;9.326;2023-07-24T07:18:43;9.73;;;7.07;;
7843;SDS011;3967;48.702;9.326;2023-07-24T07:21:09;10.57;;;6.60;;
7843;SDS011;3967;48.702;9.326;2023-07-24T07:23:36;9.27;;;6.53;;
7843;SDS011;3967;48.702;9.326;2023-07-24T07:26:03;9.17;;;6.73;;
7843;SDS011;3967;48.702;9.326;2023-07-24T07:28:30;8.87;;;6.17;;
7843;SDS011;3967;48.702;9.326;2023-07-24T07:30:56;9.20;;;6.17;;
7843;SDS011;3967;48.702;9.326;2023-07-24T07:33:23;7.53;;;6.07;;
7843;SDS011;3967;48.702;9.326;2023-07-24T07:35:50;12.67;;;6.83;;
7843;SDS011;3967;48.702;9.326;2023-07-24T07:38:17;9.77;;;6.57;;
7843;SDS011;3967;48.702;9.326;2023-07-24T07:40:44;8.93;;;6.37;;
7843;SDS011;3967;48.702;9.326;2023-07-24T07:43:11;8.13;;;6.60;;
7843;SDS011;3967;48.702;9.326;2023-07-24T07:45:37;8.47;;;6.20;;
7843;SDS011;3967;48.702;9.326;2023-07-24T07:48:04;9.97;;;7.17;;
7843;SDS011;3967;48.702;9.326;2023-07-24T07:50:31;10.27;;;6.60;;
7843;SDS011;3967;48.702;9.326;2023-07-24T07:52:58;9.50;;;6.43;;
7843;SDS011;3967;48.702;9.326;2023-07-24T07:55:26;9.90;;;6.20;;
7843;SDS011;3967;48.702;9.326;2023-07-24T07:57:52;8.50;;;6.17;;
7843;SDS011;3967;48.702;9.326;2023-07-24T08:00:19;9.20;;;6.43;;
7843;SDS011;3967;48.702;9.326;2023-07-24T08:02:46;7.40;;;6.23;;
7843;SDS011;3967;48.702;9.326;2023-07-24T08:05:13;8.77;;;6.43;;
7843;SDS011;3967;48.702;9.326;2023-07-24T08:07:46;8.07;;;5.83;;
7843;SDS011;3967;48.702;9.326;2023-07-24T08:10:13;6.60;;;5.93;;
7843;SDS011;3967;48.702;9.326;2023-07-24T08:12:42;8.97;;;5.87;;
7843;SDS011;3967;48.702;9.326;2023-07-24T08:15:09;11.20;;;5.93;;
7843;SDS011;3967;48.702;9.326;2023-07-24T08:17:36;9.13;;;6.03;;
7843;SDS011;3967;48.702;9.326;2023-07-24T08:20:03;7.40;;;5.63;;
7843;SDS011;3967;48.702;9.326;2023-07-24T08:22:30;8.80;;;6.70;;
7843;SDS011;3967;48.702;9.326;2023-07-24T08:24:57;12.07;;;6.27;;
7843;SDS011;3967;48.702;9.326;2023-07-24T08:27:24;9.63;;;6.13;;
7843;SDS011;3967;48.702;9.326;2023-07-24T08:29:51;7.60;;;5.77;;
7843;SDS011;3967;48.702;9.326;2023-07-24T08:32:19;8.37;;;6.00;;
7843;SDS011;3967;48.702;9.326;2023-07-24T08:34:46;7.60;;;5.70;;
7843;SDS011;3967;48.702;9.326;2023-07-24T08:37:13;9.13;;;6.57;;
7843;SDS011;3967;48.702;9.326;2023-07-24T08:39:40;10.10;;;6.03;;
7843;SDS011;3967;48.702;9.326;2023-07-24T08:42:11;7.50;;;5.53;;
7843;SDS011;3967;48.702;9.326;2023-07-24T08:44:38;8.37;;;6.07;;
7843;SDS011;3967;48.702;9.326;2023-07-24T08:47:06;8.10;;;6.77;;
7843;SDS011;3967;48.702;9.326;2023-07-24T08:49:38;7.33;;;5.57;;
7843;SDS011;3967;48.702;9.326;2023-07-24T08:52:06;12.73;;;7.27;;
7843;SDS011;3967;48.702;9.326;2023-07-24T08:54:37;7.83;;;6.63;;
7843;SDS011;3967;48.702;9.326;2023-07-24T08:57:08;8.80;;;6.70;;
7843;SDS011;3967;48.702;9.326;2023-07-24T08:59:35;11.93;;;6.90;;
7843;SDS011;3967;48.702;9.326;2023-07-24T09:02:01;7.73;;;6.60;;
7843;SDS011;3967;48.702;9.326;2023-07-24T09:04:29;8.57;;;6.07;;
7843;SDS011;3967;48.702;9.326;2023-07-24T09:06:56;8.20;;;5.80;;
7843;SDS011;3967;48.702;9.326;2023-07-24T09:09:28;6.87;;;5.87;;
7843;SDS011;3967;48.702;9.326;2023-07-24T09:11:56;8.43;;;6.30;;
7843;SDS011;3967;48.702;9.326;2023-07-24T09:14:25;9.80;;;6.40;;
7843;SDS011;3967;48.702;9.326;2023-07-24T09:17:04;6.93;;;5.40;;
7843;SDS011;3967;48.702;9.326;2023-07-24T09:19:34;10.30;;;6.33;;
7843;SDS011;3967;48.702;9.326;2023-07-24T09:22:08;6.50;;;5.40;;
7843;SDS011;3967;48.702;9.326;2023-07-24T09:24:36;7.53;;;5.37;;
7843;SDS011;3967;48.702;9.326;2023-07-24T09:27:06;6.90;;;5.90;;
7843;SDS011;3967;48.702;9.326;2023-07-24T09:29:33;7.00;;;5.13;;
7843;SDS011;3967;48.702;9.326;2023-07-24T09:32:01;8.70;;;5.67;;
7843;SDS011;3967;48.702;9.326;2023-07-24T09:34:28;9.37;;;5.23;;
7843;SDS011;3967;48.702;9.326;2023-07-24T09:36:55;7.70;;;5.67;;
7843;SDS011;3967;48.702;9.326;2023-07-24T09:39:22;8.00;;;5.93;;
7843;SDS011;3967;48.702;9.326;2023-07-24T09:42:02;5.70;;;4.73;;
7843;SDS011;3967;48.702;9.326;2023-07-24T09:44:30;6.83;;;5.67;;
7843;SDS011;3967;48.702;9.326;2023-07-24T09:46:58;7.07;;;6.23;;
7843;SDS011;3967;48.702;9.326;2023-07-24T09:49:44;7.83;;;5.97;;
7843;SDS011;3967;48.702;9.326;2023-07-24T09:52:12;5.30;;;4.80;;
7843;SDS011;3967;48.702;9.326;2023-07-24T09:54:43;6.10;;;5.10;;
7843;SDS011;3967;48.702;9.326;2023-07-24T09:57:25;6.50;;;5.03;;
7843;SDS011;3967;48.702;9.326;2023-07-24T09:59:53;5.80;;;5.20;;
7843;SDS011;3967;48.702;9.326;2023-07-24T10:02:22;7.53;;;5.40;;
7843;SDS011;3967;48.702;9.326;2023-07-24T10:04:50;7.27;;;4.73;;
7843;SDS011;3967;48.702;9.326;2023-07-24T10:07:18;5.47;;;4.73;;
7843;SDS011;3967;48.702;9.326;2023-07-24T10:09:48;8.17;;;6.00;;
7843;SDS011;3967;48.702;9.326;2023-07-24T10:12:19;6.67;;;4.90;;
7843;SDS011;3967;48.702;9.326;2023-07-24T10:14:47;7.10;;;4.93;;
7843;SDS011;3967;48.702;9.326;2023-07-24T10:17:14;6.43;;;4.87;;
7843;SDS011;3967;48.702;9.326;2023-07-24T10:20:19;5.47;;;4.50;;
7843;SDS011;3967;48.702;9.326;2023-07-24T10:22:45;5.20;;;4.67;;
7843;SDS011;3967;48.702;9.326;2023-07-24T10:25:12;5.50;;;5.00;;
7843;SDS011;3967;48.702;9.326;2023-07-24T10:27:41;5.80;;;4.60;;
7843;SDS011;3967;48.702;9.326;2023-07-24T10:30:09;6.50;;;4.97;;
7843;SDS011;3967;48.702;9.326;2023-07-24T10:33:03;7.87;;;5.17;;
7843;SDS011;3967;48.702;9.326;2023-07-24T10:35:37;5.97;;;4.87;;
7843;SDS011;3967;48.702;9.326;2023-07-24T10:38:04;8.63;;;6.70;;
7843;SDS011;3967;48.702;9.326;2023-07-24T10:40:32;7.67;;;5.37;;
7843;SDS011;3967;48.702;9.326;2023-07-24T10:43:00;6.30;;;5.27;;
7843;SDS011;3967;48.702;9.326;2023-07-24T10:45:37;6.83;;;5.60;;
7843;SDS011;3967;48.702;9.326;2023-07-24T10:48:05;8.33;;;6.20;;
7843;SDS011;3967;48.702;9.326;2023-07-24T10:50:36;6.30;;;5.60;;
7843;SDS011;3967;48.702;9.326;2023-07-24T10:53:07;8.67;;;5.93;;
7843;SDS011;3967;48.702;9.326;2023-07-24T10:55:39;5.87;;;5.03;;
7843;SDS011;3967;48.702;9.326;2023-07-24T10:58:07;6.83;;;5.73;;
7843;SDS011;3967;48.702;9.326;2023-07-24T11:00:34;8.20;;;5.23;;
7843;SDS011;3967;48.702;9.326;2023-07-24T11:03:01;6.60;;;5.23;;
7843;SDS011;3967;48.702;9.326;2023-07-24T11:05:29;7.33;;;5.63;;
7843;SDS011;3967;48.702;9.326;2023-07-24T11:07:55;7.77;;;5.90;;
7843;SDS011;3967;48.702;9.326;2023-07-24T11:10:23;6.87;;;5.57;;
7843;SDS011;3967;48.702;9.326;2023-07-24T11:12:50;5.97;;;5.20;;
7843;SDS011;3967;48.702;9.326;2023-07-24T11:15:23;6.47;;;5.70;;
7843;SDS011;3967;48.702;9.326;2023-07-24T11:17:52;10.80;;;5.10;;
7843;SDS011;3967;48.702;9.326;2023-07-24T11:20:19;8.00;;;5.27;;
7843;SDS011;3967;48.702;9.326;2023-07-24T11:22:46;6.83;;;5.30;;
7843;SDS011;3967;48.702;9.326;2023-07-24T11:25:13;9.53;;;5.23;;
7843;SDS011;3967;48.702;9.326;2023-07-24T11:27:41;8.87;;;6.13;;
7843;SDS011;3967;48.702;9.326;2023-07-24T11:30:10;6.60;;;5.77;;
7843;SDS011;3967;48.702;9.326;2023-07-24T11:32:41;6.87;;;5.40;;
7843;SDS011;3967;48.702;9.326;2023-07-24T11:35:09;6.37;;;5.33;;
7843;SDS011;3967;48.702;9.326;2023-07-24T11:37:36;8.47;;;6.13;;
7843;SDS011;3967;48.702;9.326;2023-07-24T11:40:03;6.63;;;5.50;;
7843;SDS011;3967;48.702;9.326;2023-07-24T11:42:37;8.63;;;5.37;;
7843;SDS011;3967;48.702;9.326;2023-07-24T11:45:04;6.57;;;5.47;;
7843;SDS011;3967;48.702;9.326;2023-07-24T11:47:40;6.70;;;5.30;;
7843;SDS011;3967;48.702;9.326;2023-07-24T11:50:15;6.60;;;5.43;;
7843;SDS011;3967;48.702;9.326;2023-07-24T11:52:47;9.03;;;6.27;;
7843;SDS011;3967;48.702;9.326;2023-07-24T11:55:17;7.10;;;5.50;;
7843;SDS011;3967;48.702;9.326;2023-07-24T11:57:54;10.17;;;6.03;;
7843;SDS011;3967;48.702;9.326;2023-07-24T12:00:25;6.63;;;5.73;;
7843;SDS011;3967;48.702;9.326;2023-07-24T12:02:52;6.63;;;5.47;;
7843;SDS011;3967;48.702;9.326;2023-07-24T12:05:20;8.50;;;7.00;;
7843;SDS011;3967;48.702;9.326;2023-07-24T12:07:48;8.57;;;5.67;;
7843;SDS011;3967;48.702;9.326;2023-07-24T12:10:24;5.60;;;5.10;;
7843;SDS011;3967;48.702;9.326;2023-07-24T12:12:54;5.23;;;4.77;;
7843;SDS011;3967;48.702;9.326;2023-07-24T12:15:24;5.63;;;4.67;;
7843;SDS011;3967;48.702;9.326;2023-07-24T12:17:50;5.87;;;5.27;;
7843;SDS011;3967;48.702;9.326;2023-07-24T12:20:17;7.33;;;5.30;;
7843;SDS011;3967;48.702;9.326;2023-07-24T12:22:44;7.83;;;5.60;;
7843;SDS011;3967;48.702;9.326;2023-07-24T12:25:11;5.30;;;4.73;;
7843;SDS011;3967;48.702;9.326;2023-07-24T12:27:38;5.77;;;5.23;;
7843;SDS011;3967;48.702;9.326;2023-07-24T12:30:06;9.97;;;6.27;;
7843;SDS011;3967;48.702;9.326;2023-07-24T12:32:33;9.60;;;5.57;;
7843;SDS011;3967;48.702;9.326;2023-07-24T12:35:00;5.60;;;4.87;;
7843;SDS011;3967;48.702;9.326;2023-07-24T12:37:27;6.43;;;5.67;;
7843;SDS011;3967;48.702;9.326;2023-07-24T12:39:54;5.90;;;5.30;;
7843;SDS011;3967;48.702;9.326;2023-07-24T12:42:21;6.37;;;5.23;;
7843;SDS011;3967;48.702;9.326;2023-07-24T12:44:49;7.83;;;5.30;;
7843;SDS011;3967;48.702;9.326;2023-07-24T12:47:16;6.67;;;4.70;;
7843;SDS011;3967;48.702;9.326;2023-07-24T12:49:43;6.40;;;4.63;;
7843;SDS011;3967;48.702;9.326;2023-07-24T12:52:10;4.50;;;3.83;;
7843;SDS011;3967;48.702;9.326;2023-07-24T12:54:37;4.73;;;4.23;;
7843;SDS011;3967;48.702;9.326;2023-07-24T12:57:24;5.73;;;4.90;;
7843;SDS011;3967;48.702;9.326;2023-07-24T12:59:52;4.37;;;3.97;;
7843;SDS011;3967;48.702;9.326;2023-07-24T13:02:19;4.57;;;4.17;;
7843;SDS011;3967;48.702;9.326;2023-07-24T13:04:46;5.10;;;4.50;;
7843;SDS011;3967;48.702;9.326;2023-07-24T13:07:13;5.60;;;4.00;;
7843;SDS011;3967;48.702;9.326;2023-07-24T13:09:40;5.93;;;4.30;;
7843;SDS011;3967;48.702;9.326;2023-07-24T13:12:06;6.47;;;3.87;;
7843;SDS011;3967;48.702;9.326;2023-07-24T13:14:34;5.37;;;3.90;;
7843;SDS011;3967;48.702;9.326;2023-07-24T13:17:02;5.03;;;4.17;;
7843;SDS011;3967;48.702;9.326;2023-07-24T13:19:29;4.37;;;3.97;;
7843;SDS011;3967;48.702;9.326;2023-07-24T13:21:56;4.83;;;4.23;;
7843;SDS011;3967;48.702;9.326;2023-07-24T13:24:23;6.40;;;4.37;;
7843;SDS011;3967;48.702;9.326;2023-07-24T13:26:50;6.23;;;4.23;;
7843;SDS011;3967;48.702;9.326;2023-07-24T13:29:17;4.63;;;3.97;;
7843;SDS011;3967;48.702;9.326;2023-07-24T13:31:43;4.87;;;4.13;;
7843;SDS011;3967;48.702;9.326;2023-07-24T13:34:10;3.90;;;3.60;;
7843;SDS011;3967;48.702;9.326;2023-07-24T13:36:37;4.23;;;3.70;;
7843;SDS011;3967;48.702;9.326;2023-07-24T13:39:04;4.30;;;3.73;;
7843;SDS011;3967;48.702;9.326;2023-07-24T13:41:31;3.67;;;3.37;;
7843;SDS011;3967;48.702;9.326;2023-07-24T13:43:58;4.23;;;3.83;;
7843;SDS011;3967;48.702;9.326;2023-07-24T13:46:25;4.43;;;3.77;;
7843;SDS011;3967;48.702;9.326;2023-07-24T13:48:52;4.47;;;3.23;;
7843;SDS011;3967;48.702;9.326;2023-07-24T13:51:19;3.67;;;3.33;;
7843;SDS011;3967;48.702;9.326;2023-07-24T13:53:45;4.37;;;3.90;;
7843;SDS011;3967;48.702;9.326;2023-07-24T13:56:14;4.33;;;3.40;;
7843;SDS011;3967;48.702;9.326;2023-07-24T13:58:41;4.13;;;3.53;;
7843;SDS011;3967;48.702;9.326;2023-07-24T14:01:08;4.23;;;3.57;;
7843;SDS011;3967;48.702;9.326;2023-07-24T14:03:34;5.40;;;3.67;;
7843;SDS011;3967;48.702;9.326;2023-07-24T14:06:02;5.47;;;3.20;;
7843;SDS011;3967;48.702;9.326;2023-07-24T14:08:29;4.03;;;3.57;;
7843;SDS011;3967;48.702;9.326;2023-07-24T14:10:55;4.80;;;3.50;;
7843;SDS011;3967;48.702;9.326;2023-07-24T14:13:22;3.93;;;3.30;;
7843;SDS011;3967;48.702;9.326;2023-07-24T14:15:49;5.03;;;3.80;;
7843;SDS011;3967;48.702;9.326;2023-07-24T14:18:16;4.30;;;3.63;;
7843;SDS011;3967;48.702;9.326;2023-07-24T14:20:42;5.03;;;3.20;;
7843;SDS011;3967;48.702;9.326;2023-07-24T14:23:09;3.70;;;3.40;;
7843;SDS011;3967;48.702;9.326;2023-07-24T14:25:36;3.67;;;3.37;;
7843;SDS011;3967;48.702;9.326;2023-07-24T14:28:03;3.60;;;2.60;;
7843;SDS011;3967;48.702;9.326;2023-07-24T14:30:30;3.37;;;3.07;;
7843;SDS011;3967;48.702;9.326;2023-07-24T14:32:56;4.30;;;2.70;;
7843;SDS011;3967;48.702;9.326;2023-07-24T14:35:23;2.90;;;2.63;;
7843;SDS011;3967;48.702;9.326;2023-07-24T14:37:50;3.87;;;2.87;;
7843;SDS011;3967;48.702;9.326;2023-07-24T14:40:18;2.70;;;2.50;;
7843;SDS011;3967;48.702;9.326;2023-07-24T14:42:45;3.77;;;2.47;;
7843;SDS011;3967;48.702;9.326;2023-07-24T14:45:12;2.90;;;2.63;;
7843;SDS011;3967;48.702;9.326;2023-07-24T14:47:39;3.37;;;2.57;;
7843;SDS011;3967;48.702;9.326;2023-07-24T14:50:06;3.23;;;2.93;;
7843;SDS011;3967;48.702;9.326;2023-07-24T14:52:33;2.63;;;2.43;;
7843;SDS011;3967;48.702;9.326;2023-07-24T14:55:00;3.10;;;2.50;;
7843;SDS011;3967;48.702;9.326;2023-07-24T14:57:26;2.40;;;2.20;;
7843;SDS011;3967;48.702;9.326;2023-07-24T14:59:53;4.70;;;2.30;;
7843;SDS011;3967;48.702;9.326;2023-07-24T15:02:20;2.73;;;2.53;;
7843;SDS011;3967;48.702;9.326;2023-07-24T15:04:47;5.13;;;2.73;;
7843;SDS011;3967;48.702;9.326;2023-07-24T15:07:14;3.13;;;2.90;;
7843;SDS011;3967;48.702;9.326;2023-07-24T15:09:41;2.50;;;2.30;;
7843;SDS011;3967;48.702;9.326;2023-07-24T15:12:08;2.70;;;2.50;;
7843;SDS011;3967;48.702;9.326;2023-07-24T15:14:35;3.10;;;2.80;;
7843;SDS011;3967;48.702;9.326;2023-07-24T15:17:02;3.50;;;2.33;;
7843;SDS011;3967;48.702;9.326;2023-07-24T15:19:29;3.50;;;2.53;;
7843;SDS011;3967;48.702;9.326;2023-07-24T15:21:55;4.70;;;2.43;;